createdAt,value
2022-10-05T00:00:27.502Z,10.00
2022-10-05T00:02:54.271Z,9.99
2022-10-05T00:05:26.059Z,9.94
2022-10-05T00:07:52.808Z,9.91
2022-10-05T00:10:19.547Z,10.07
2022-10-05T00:12:46.594Z,10.08
2022-10-05T00:15:13.721Z,10.05
2022-10-05T00:17:40.686Z,10.03
2022-10-05T00:20:17.779Z,10.07
2022-10-05T00:22:44.255Z,10.01
2022-10-05T00:25:12.272Z,10.01
2022-10-05T00:27:39.008Z,9.97
2022-10-05T00:30:16.289Z,9.93
2022-10-05T00:32:42.818Z,10.01
2022-10-05T00:35:09.800Z,9.98
2022-10-05T00:37:36.320Z,9.94
2022-10-05T00:40:03.506Z,10.08
2022-10-05T00:42:34.668Z,10.02
2022-10-05T00:45:07.858Z,9.89
2022-10-05T00:47:46.458Z,9.95
2022-10-05T00:50:20.409Z,9.87
2022-10-05T00:53:10.110Z,9.84
2022-10-05T00:55:39.679Z,9.86
2022-10-05T00:58:24.955Z,9.87
2022-10-05T01:00:55.235Z,9.92
2022-10-05T01:03:21.856Z,9.95
2022-10-05T01:05:51.273Z,10.01
2022-10-05T01:08:27.052Z,10.01
2022-10-05T01:11:14.685Z,10.02
2022-10-05T01:13:46.937Z,9.97
2022-10-05T01:16:22.505Z,9.87
2022-10-05T01:19:07.810Z,9.84
2022-10-05T01:21:37.044Z,9.78
2022-10-05T01:24:14.868Z,9.74
2022-10-05T01:26:47.613Z,9.64
2022-10-05T01:29:17.294Z,9.67
2022-10-05T01:31:43.787Z,9.67
2022-10-05T01:34:12.535Z,9.56
2022-10-05T01:36:44.908Z,9.53
2022-10-05T01:39:25.735Z,9.56
2022-10-05T01:42:01.374Z,9.63
2022-10-05T01:44:37.802Z,9.63
2022-10-05T01:47:08.363Z,9.73
2022-10-05T01:49:38.739Z,9.72
2022-10-05T01:52:05.171Z,9.85
2022-10-05T01:54:40.386Z,9.78
2022-10-05T01:57:13.778Z,9.82
2022-10-05T01:59:40.173Z,9.90
2022-10-05T02:02:08.039Z,9.98
2022-10-05T02:05:03.920Z,9.99
2022-10-05T02:07:50.621Z,9.93
2022-10-05T02:10:22.204Z,9.88
2022-10-05T02:12:49.149Z,9.80
2022-10-05T02:15:17.538Z,9.70
2022-10-05T02:17:48.838Z,9.68
2022-10-05T02:20:17.409Z,9.75
2022-10-05T02:22:45.175Z,9.81
2022-10-05T02:25:15.916Z,9.76
2022-10-05T02:28:02.655Z,9.80
2022-10-05T02:30:29.549Z,9.74
2022-10-05T02:33:03.205Z,9.67
2022-10-05T02:35:29.698Z,9.62
2022-10-05T02:38:02.351Z,9.71
2022-10-05T02:40:32.571Z,9.72
2022-10-05T02:43:08.114Z,9.80
2022-10-05T02:45:37.678Z,9.80
2022-10-05T02:48:13.427Z,9.88
2022-10-05T02:50:48.662Z,9.94
2022-10-05T02:53:21.324Z,9.88
2022-10-05T02:55:56.982Z,9.94
2022-10-05T02:58:23.951Z,9.85
2022-10-05T03:00:51.028Z,9.80
2022-10-05T03:03:24.971Z,9.69
2022-10-05T03:05:53.571Z,9.52
2022-10-05T03:08:22.256Z,9.45
2022-10-05T03:11:07.671Z,9.36
2022-10-05T03:13:37.407Z,9.21
2022-10-05T03:16:10.012Z,9.12
2022-10-05T03:18:36.496Z,9.05
2022-10-05T03:21:02.864Z,8.99
2022-10-05T03:23:35.824Z,8.98
2022-10-05T03:26:06.107Z,8.97
2022-10-05T03:28:42.856Z,9.00
2022-10-05T03:31:15.141Z,8.96
2022-10-05T03:33:50.665Z,8.92
2022-10-05T03:36:17.105Z,8.94
2022-10-05T03:39:06.804Z,8.86
2022-10-05T03:42:05.662Z,8.75
2022-10-05T03:44:32.104Z,8.54
2022-10-05T03:47:01.729Z,8.43
2022-10-05T03:49:43.639Z,8.38
2022-10-05T03:52:12.818Z,8.25
2022-10-05T03:55:08.689Z,8.23
2022-10-05T03:57:35.864Z,8.17
2022-10-05T04:00:05.545Z,8.09
2022-10-05T04:02:41.292Z,8.02
2022-10-05T04:05:10.823Z,8.03
2022-10-05T04:07:39.890Z,7.98
2022-10-05T04:10:09.776Z,8.02
2022-10-05T04:12:37.300Z,8.04
2022-10-05T04:15:05.144Z,8.11
2022-10-05T04:17:33.079Z,8.25
2022-10-05T04:20:03.596Z,8.34
2022-10-05T04:22:43.235Z,8.36
2022-10-05T04:25:21.589Z,8.45
2022-10-05T04:27:50.959Z,8.67
2022-10-05T04:30:22.216Z,8.75
2022-10-05T04:32:52.658Z,8.74
2022-10-05T04:35:31.370Z,8.74
2022-10-05T04:38:07.074Z,8.72
2022-10-05T04:40:45.688Z,8.73
2022-10-05T04:43:19.035Z,8.77
2022-10-05T04:45:51.746Z,8.76
2022-10-05T04:48:33.551Z,8.73
2022-10-05T04:50:59.997Z,8.72
2022-10-05T04:53:31.568Z,8.80
2022-10-05T04:55:59.680Z,8.90
2022-10-05T04:58:32.266Z,8.96
2022-10-05T05:01:17.376Z,9.05
2022-10-05T05:03:56.087Z,9.22
2022-10-05T05:06:28.747Z,9.23
2022-10-05T05:09:01.393Z,9.43
2022-10-05T05:11:46.534Z,9.48
2022-10-05T05:14:16.764Z,9.62
2022-10-05T05:16:43.806Z,9.58
2022-10-05T05:19:31.663Z,9.57
2022-10-05T05:22:27.478Z,9.52
2022-10-05T05:24:56.740Z,9.51
2022-10-05T05:27:26.300Z,9.49
2022-10-05T05:30:16.002Z,9.41
2022-10-05T05:33:08.704Z,9.43
2022-10-05T05:35:35.112Z,9.38
2022-10-05T05:38:04.582Z,9.38
2022-10-05T05:40:33.343Z,9.38
2022-10-05T05:43:01.048Z,9.39
2022-10-05T05:45:27.449Z,9.39
2022-10-05T05:47:54.369Z,9.42
2022-10-05T05:50:20.808Z,9.43
2022-10-05T05:52:49.179Z,9.40
2022-10-05T05:55:30.535Z,9.41
2022-10-05T05:57:57.154Z,9.44
2022-10-05T06:00:25.013Z,9.44
2022-10-05T06:02:57.435Z,9.46
2022-10-05T06:05:25.070Z,9.54
2022-10-05T06:07:51.615Z,9.58
2022-10-05T06:10:38.322Z,9.68
2022-10-05T06:13:16.807Z,9.75
2022-10-05T06:15:48.227Z,9.80
2022-10-05T06:18:15.913Z,9.91
2022-10-05T06:21:01.077Z,9.90
2022-10-05T06:23:47.762Z,9.99
2022-10-05T06:26:24.183Z,10.07
2022-10-05T06:28:58.301Z,10.11
2022-10-05T06:31:30.992Z,10.18
2022-10-05T06:34:07.153Z,10.26
2022-10-05T06:36:42.711Z,10.32
2022-10-05T06:39:21.407Z,10.39
2022-10-05T06:41:47.835Z,10.48
2022-10-05T06:44:19.978Z,10.56
2022-10-05T06:47:00.920Z,10.61
2022-10-05T06:49:27.333Z,10.70
2022-10-05T06:51:58.503Z,10.75
2022-10-05T06:54:31.038Z,10.89
2022-10-05T06:57:01.295Z,10.98
2022-10-05T06:59:46.089Z,11.07
2022-10-05T07:02:15.900Z,11.14
2022-10-05T07:04:45.412Z,11.16
2022-10-05T07:07:18.535Z,11.22
2022-10-05T07:09:48.006Z,11.35
2022-10-05T07:12:41.415Z,11.44
2022-10-05T07:15:26.668Z,11.60
2022-10-05T07:18:02.663Z,11.68
2022-10-05T07:20:49.010Z,11.77
2022-10-05T07:23:22.237Z,11.79
2022-10-05T07:25:49.278Z,11.79
2022-10-05T07:28:21.891Z,11.85
2022-10-05T07:31:04.187Z,11.90
2022-10-05T07:33:33.656Z,11.91
2022-10-05T07:36:21.909Z,11.99
2022-10-05T07:38:48.334Z,12.01
2022-10-05T07:41:19.340Z,11.97
2022-10-05T07:44:01.488Z,12.05
2022-10-05T07:46:28.760Z,12.07
2022-10-05T07:49:15.412Z,12.13
2022-10-05T07:51:45.101Z,12.12
2022-10-05T07:54:25.391Z,12.13
2022-10-05T07:56:56.075Z,12.17
2022-10-05T07:59:25.425Z,12.35
2022-10-05T08:01:54.787Z,12.47
2022-10-05T08:04:25.401Z,12.44
2022-10-05T08:06:51.894Z,12.50
2022-10-05T08:09:18.299Z,12.57
2022-10-05T08:11:56.621Z,12.66
2022-10-05T08:14:43.014Z,12.58
2022-10-05T08:17:16.453Z,12.66
2022-10-05T08:19:55.559Z,12.74
2022-10-05T08:22:23.824Z,12.76
2022-10-05T08:25:10.728Z,12.88
2022-10-05T08:27:40.587Z,12.93
2022-10-05T08:30:10.653Z,12.92
2022-10-05T08:32:37.080Z,13.00
2022-10-05T08:35:22.238Z,13.04
2022-10-05T08:37:48.687Z,13.04
2022-10-05T08:40:15.158Z,13.16
2022-10-05T08:43:00.841Z,13.26
2022-10-05T08:45:46.135Z,12.76
2022-10-05T08:48:12.592Z,12.98
2022-10-05T08:50:57.785Z,13.10
2022-10-05T08:53:33.483Z,13.22
2022-10-05T08:56:20.839Z,13.27
2022-10-05T08:59:06.704Z,13.10
2022-10-05T09:01:36.291Z,13.23
2022-10-05T09:04:05.845Z,13.35
2022-10-05T09:06:38.530Z,13.34
2022-10-05T09:09:10.767Z,13.31
2022-10-05T09:12:00.573Z,13.33
2022-10-05T09:14:52.450Z,13.43
2022-10-05T09:17:28.407Z,13.44
2022-10-05T09:20:10.863Z,13.60
2022-10-05T09:23:09.930Z,13.84
2022-10-05T09:25:46.276Z,13.84
2022-10-05T09:28:25.180Z,13.93
2022-10-05T09:31:06.988Z,13.98
2022-10-05T09:33:39.662Z,14.10
2022-10-05T09:36:09.166Z,14.06
2022-10-05T09:38:45.581Z,13.89
2022-10-05T09:41:12.031Z,14.13
2022-10-05T09:43:48.890Z,14.23
2022-10-05T09:46:20.235Z,14.57
2022-10-05T09:48:56.541Z,14.80
2022-10-05T09:51:41.821Z,14.94
2022-10-05T09:54:08.310Z,15.24
2022-10-05T09:56:34.938Z,15.35
2022-10-05T09:59:07.759Z,15.47
2022-10-05T10:01:38.088Z,15.33
2022-10-05T10:04:20.386Z,15.39
2022-10-05T10:06:52.980Z,15.55
2022-10-05T10:09:19.445Z,15.65
2022-10-05T10:11:46.145Z,15.94
2022-10-05T10:14:18.821Z,16.40
2022-10-05T10:17:04.083Z,16.60
2022-10-05T10:19:41.678Z,16.71
2022-10-05T10:22:26.899Z,16.89
2022-10-05T10:25:02.330Z,16.58
2022-10-05T10:27:52.232Z,16.29
2022-10-05T10:30:27.419Z,16.12
2022-10-05T10:32:59.577Z,16.30
2022-10-05T10:35:35.971Z,16.20
2022-10-05T10:38:14.696Z,16.39
2022-10-05T10:40:59.881Z,16.67
2022-10-05T10:43:55.797Z,16.53
2022-10-05T10:46:41.002Z,16.51
2022-10-05T10:49:07.446Z,16.90
2022-10-05T10:51:47.479Z,17.49
2022-10-05T10:54:23.373Z,17.81
2022-10-05T10:57:19.347Z,18.29
2022-10-05T11:00:04.661Z,18.46
2022-10-05T11:02:50.036Z,17.62
2022-10-05T11:05:19.498Z,17.34
2022-10-05T11:07:45.902Z,16.94
2022-10-05T11:10:12.340Z,17.03
2022-10-05T11:12:58.562Z,16.82
2022-10-05T11:15:24.991Z,16.61
2022-10-05T11:17:51.423Z,16.62
2022-10-05T11:20:27.998Z,16.97
2022-10-05T11:23:06.625Z,17.07
2022-10-05T11:25:45.929Z,16.55
2022-10-05T11:28:31.210Z,17.07
2022-10-05T11:30:57.641Z,18.58
2022-10-05T11:33:24.415Z,19.38
2022-10-05T11:36:10.030Z,19.43
2022-10-05T11:38:55.137Z,20.63
2022-10-05T11:41:24.558Z,23.00
2022-10-05T11:44:09.630Z,24.04
2022-10-05T11:46:49.169Z,24.95
2022-10-05T11:49:19.512Z,26.82
2022-10-05T11:51:46.233Z,27.03
2022-10-05T11:54:17.496Z,28.08
2022-10-05T11:56:49.543Z,28.29
2022-10-05T11:59:34.690Z,29.98
2022-10-05T12:02:01.081Z,30.81
2022-10-05T12:04:30.507Z,30.88
2022-10-05T12:07:00.185Z,31.89
2022-10-05T12:09:33.430Z,32.33
2022-10-05T12:12:05.980Z,31.62
2022-10-05T12:14:33.602Z,31.70
2022-10-05T12:17:18.771Z,32.42
2022-10-05T12:19:46.107Z,32.58
2022-10-05T12:22:15.423Z,31.67
2022-10-05T12:24:44.618Z,30.25
2022-10-05T12:27:15.891Z,29.28
2022-10-05T12:29:42.317Z,25.54
2022-10-05T12:32:24.786Z,28.05
2022-10-05T12:35:30.061Z,29.16
2022-10-05T12:38:30.352Z,31.47
2022-10-05T12:41:09.380Z,32.77
2022-10-05T12:43:35.804Z,31.89
2022-10-05T12:46:17.810Z,33.87
2022-10-05T12:48:56.581Z,32.11
2022-10-05T12:51:27.386Z,33.53
2022-10-05T12:54:02.887Z,35.36
2022-10-05T12:56:31.802Z,34.41
2022-10-05T12:59:17.677Z,31.27
2022-10-05T13:02:02.429Z,30.82
2022-10-05T13:04:31.982Z,28.85
2022-10-05T13:07:04.511Z,27.69
2022-10-05T13:09:40.591Z,25.03
2022-10-05T13:12:19.081Z,23.94
2022-10-05T13:14:45.489Z,22.84
2022-10-05T13:17:30.818Z,22.06
2022-10-05T13:19:57.772Z,22.16
2022-10-05T13:22:24.184Z,21.58
2022-10-05T13:24:52.453Z,22.53
2022-10-05T13:27:32.147Z,23.34
2022-10-05T13:30:02.794Z,22.89
2022-10-05T13:32:34.501Z,22.26
2022-10-05T13:35:11.357Z,21.08
2022-10-05T13:37:41.203Z,20.75
2022-10-05T13:40:07.625Z,21.20
2022-10-05T13:42:37.719Z,22.36
2022-10-05T13:45:12.399Z,22.01
2022-10-05T13:47:41.933Z,22.37
2022-10-05T13:50:19.529Z,23.17
2022-10-05T13:52:45.887Z,22.80
2022-10-05T13:55:12.293Z,21.69
2022-10-05T13:57:45.026Z,21.30
2022-10-05T14:00:16.604Z,20.52
2022-10-05T14:02:43.755Z,19.60
2022-10-05T14:05:16.306Z,19.16
2022-10-05T14:08:06.041Z,18.69
2022-10-05T14:10:33.878Z,18.43
2022-10-05T14:13:01.144Z,18.49
2022-10-05T14:15:32.257Z,18.51
2022-10-05T14:17:58.796Z,18.44
2022-10-05T14:20:26.444Z,18.34
2022-10-05T14:22:54.903Z,18.37
2022-10-05T14:25:21.419Z,17.92
2022-10-05T14:27:49.139Z,17.80
2022-10-05T14:30:15.542Z,17.67
2022-10-05T14:32:51.407Z,17.61
2022-10-05T14:35:20.692Z,17.42
2022-10-05T14:37:50.389Z,17.47
2022-10-05T14:40:36.179Z,17.29
2022-10-05T14:43:17.306Z,17.16
2022-10-05T14:45:57.133Z,17.20
2022-10-05T14:48:24.179Z,17.00
2022-10-05T14:50:55.057Z,16.93
2022-10-05T14:53:22.704Z,16.82
2022-10-05T14:55:52.158Z,16.82
2022-10-05T14:58:37.273Z,16.72
2022-10-05T15:01:11.271Z,16.65
2022-10-05T15:03:41.047Z,16.50
2022-10-05T15:06:09.088Z,16.45
2022-10-05T15:08:48.518Z,16.35
2022-10-05T15:11:21.177Z,16.36
2022-10-05T15:13:48.610Z,16.49
2022-10-05T15:16:24.820Z,16.64
2022-10-05T15:18:57.383Z,16.58
2022-10-05T15:21:24.005Z,16.44
2022-10-05T15:23:57.651Z,16.40
2022-10-05T15:26:43.083Z,16.40
2022-10-05T15:29:09.434Z,16.39
2022-10-05T15:31:39.787Z,16.29
2022-10-05T15:34:11.441Z,16.14
2022-10-05T15:36:41.517Z,15.98
2022-10-05T15:39:14.420Z,15.87
2022-10-05T15:41:50.793Z,15.82
2022-10-05T15:44:25.999Z,15.80
2022-10-05T15:46:56.448Z,15.71
2022-10-05T15:49:43.539Z,15.77
2022-10-05T15:52:33.328Z,15.68
2022-10-05T15:55:19.453Z,15.64
2022-10-05T15:57:48.905Z,15.59
2022-10-05T16:00:19.410Z,15.57
2022-10-05T16:02:54.652Z,15.50
2022-10-05T16:05:47.455Z,15.57
2022-10-05T16:08:55.507Z,15.46
2022-10-05T16:11:40.703Z,15.30
2022-10-05T16:14:10.341Z,15.29
2022-10-05T16:16:42.126Z,15.30
2022-10-05T16:19:12.530Z,15.28
2022-10-05T16:21:45.895Z,15.20
2022-10-05T16:24:31.220Z,15.19
2022-10-05T16:26:58.739Z,15.23
2022-10-05T16:29:34.292Z,15.16
2022-10-05T16:32:03.048Z,15.15
2022-10-05T16:34:32.495Z,15.06
2022-10-05T16:36:59.168Z,15.01
2022-10-05T16:39:44.997Z,14.86
2022-10-05T16:42:11.939Z,14.76
2022-10-05T16:44:44.429Z,14.74
2022-10-05T16:47:29.485Z,14.62
2022-10-05T16:50:10.165Z,14.54
2022-10-05T16:52:37.301Z,14.50
2022-10-05T16:55:04.798Z,14.62
2022-10-05T16:57:31.581Z,14.62
2022-10-05T17:00:18.367Z,14.65
2022-10-05T17:02:57.024Z,14.67
2022-10-05T17:05:44.146Z,14.73
2022-10-05T17:08:26.764Z,14.61
2022-10-05T17:10:53.402Z,14.55
2022-10-05T17:13:37.406Z,14.43
2022-10-05T17:16:09.943Z,14.36
2022-10-05T17:18:55.271Z,14.38
2022-10-05T17:21:28.535Z,14.36
2022-10-05T17:23:57.442Z,14.51
2022-10-05T17:26:32.970Z,14.53
2022-10-05T17:29:00.516Z,14.61
2022-10-05T17:31:28.612Z,14.57
2022-10-05T17:34:23.123Z,14.62
2022-10-05T17:36:50.511Z,14.55
2022-10-05T17:39:18.436Z,14.51
2022-10-05T17:41:44.951Z,14.63
2022-10-05T17:44:13.295Z,14.54
2022-10-05T17:46:40.366Z,14.61
2022-10-05T17:49:18.789Z,14.52
2022-10-05T17:52:03.867Z,14.51
2022-10-05T17:54:49.809Z,14.56
2022-10-05T17:57:16.226Z,14.56
2022-10-05T17:59:44.587Z,14.52
2022-10-05T18:02:21.911Z,14.76
2022-10-05T18:05:16.227Z,14.71
2022-10-05T18:07:43.252Z,14.67
2022-10-05T18:10:09.645Z,14.68
2022-10-05T18:12:36.035Z,14.79
2022-10-05T18:15:05.661Z,14.77
2022-10-05T18:17:39.965Z,14.75
2022-10-05T18:20:26.990Z,14.74
2022-10-05T18:22:54.666Z,14.72
2022-10-05T18:25:21.099Z,14.72
2022-10-05T18:27:50.655Z,14.66
2022-10-05T18:30:21.346Z,14.67
2022-10-05T18:33:11.205Z,14.75
2022-10-05T18:35:44.137Z,14.81
2022-10-05T18:38:29.253Z,14.83
2022-10-05T18:40:59.226Z,14.80
2022-10-05T18:43:34.753Z,14.81
2022-10-05T18:46:15.031Z,14.87
2022-10-05T18:49:05.035Z,14.80
2022-10-05T18:51:31.455Z,14.71
2022-10-05T18:53:57.877Z,14.63
2022-10-05T18:56:24.413Z,14.54
2022-10-05T18:59:09.608Z,14.51
2022-10-05T19:01:36.085Z,14.42
2022-10-05T19:04:04.938Z,14.32
2022-10-05T19:06:44.544Z,14.26
2022-10-05T19:09:20.372Z,14.18
2022-10-05T19:11:51.186Z,14.17
2022-10-05T19:14:23.490Z,14.19
2022-10-05T19:16:49.884Z,14.23
2022-10-05T19:19:35.143Z,14.13
2022-10-05T19:22:04.548Z,14.07
2022-10-05T19:24:41.658Z,14.05
2022-10-05T19:27:14.213Z,14.01
2022-10-05T19:29:40.619Z,13.99
2022-10-05T19:32:16.591Z,13.94
2022-10-05T19:34:43.038Z,13.98
2022-10-05T19:37:31.012Z,14.00
2022-10-05T19:39:59.003Z,14.02
2022-10-05T19:42:36.619Z,13.97
2022-10-05T19:45:21.880Z,14.00
2022-10-05T19:47:54.455Z,14.00
2022-10-05T19:50:26.373Z,14.06
2022-10-05T19:53:02.468Z,14.16
2022-10-05T19:55:32.804Z,14.23
2022-10-05T19:58:02.166Z,14.30
2022-10-05T20:00:33.007Z,14.30
2022-10-05T20:03:08.473Z,14.35
2022-10-05T20:05:34.946Z,14.37
2022-10-05T20:08:01.384Z,14.48
2022-10-05T20:10:29.628Z,14.54
2022-10-05T20:12:59.819Z,14.61
2022-10-05T20:15:45.972Z,14.73
2022-10-05T20:18:50.095Z,14.75
2022-10-05T20:21:35.677Z,14.78
2022-10-05T20:24:08.198Z,14.77
2022-10-05T20:26:57.551Z,14.76
2022-10-05T20:29:23.964Z,14.73
2022-10-05T20:31:50.536Z,14.84
2022-10-05T20:34:18.062Z,14.84
2022-10-05T20:36:45.967Z,14.94
2022-10-05T20:39:15.610Z,14.93
2022-10-05T20:41:42.716Z,14.91
2022-10-05T20:44:09.424Z,15.00
2022-10-05T20:46:35.929Z,14.98
2022-10-05T20:49:02.758Z,14.99
2022-10-05T20:51:29.172Z,14.98
2022-10-05T20:53:56.122Z,15.10
2022-10-05T20:56:23.439Z,15.01
2022-10-05T20:58:50.243Z,15.01
2022-10-05T21:01:19.976Z,15.09
2022-10-05T21:03:46.718Z,15.10
2022-10-05T21:06:13.128Z,15.13
2022-10-05T21:08:39.590Z,15.11
2022-10-05T21:11:09.056Z,15.10
2022-10-05T21:13:36.032Z,15.08
2022-10-05T21:16:02.554Z,15.11
2022-10-05T21:18:29.542Z,15.14
2022-10-05T21:20:59.942Z,15.07
2022-10-05T21:23:29.441Z,14.99
2022-10-05T21:25:55.853Z,15.15
2022-10-05T21:28:22.486Z,15.15
2022-10-05T21:30:48.970Z,15.15
2022-10-05T21:33:15.371Z,15.09
2022-10-05T21:35:41.804Z,15.24
2022-10-05T21:38:08.204Z,15.19
2022-10-05T21:40:34.641Z,15.12
2022-10-05T21:43:01.112Z,15.14
2022-10-05T21:45:28.279Z,15.18
2022-10-05T21:47:54.763Z,15.13
2022-10-05T21:50:21.179Z,15.13
2022-10-05T21:52:47.601Z,15.10
2022-10-05T21:55:14.014Z,15.08
2022-10-05T21:57:41.251Z,15.07
2022-10-05T22:00:08.023Z,15.13
2022-10-05T22:02:34.527Z,15.20
2022-10-05T22:05:01.079Z,15.18
2022-10-05T22:07:29.021Z,15.00
2022-10-05T22:09:55.548Z,14.83
2022-10-05T22:12:22.171Z,14.61
2022-10-05T22:14:48.716Z,14.49
2022-10-05T22:17:17.439Z,14.40
2022-10-05T22:19:43.879Z,14.24
2022-10-05T22:22:12.021Z,14.08
2022-10-05T22:24:38.565Z,13.96
2022-10-05T22:27:05.009Z,14.01
2022-10-05T22:29:31.416Z,13.93
2022-10-05T22:31:57.970Z,14.00
2022-10-05T22:34:24.424Z,14.10
2022-10-05T22:36:50.856Z,14.19
2022-10-05T22:39:17.570Z,14.29
2022-10-05T22:41:44.026Z,14.34
2022-10-05T22:44:10.496Z,14.42
2022-10-05T22:46:36.939Z,14.52
2022-10-05T22:49:03.361Z,14.58
2022-10-05T22:51:29.779Z,14.65
2022-10-05T22:53:56.187Z,14.63
2022-10-05T22:56:22.662Z,14.64
2022-10-05T22:58:49.773Z,14.37
2022-10-05T23:01:17.197Z,14.22
2022-10-05T23:03:43.825Z,14.02
2022-10-05T23:06:14.736Z,13.97
2022-10-05T23:08:41.686Z,13.90
2022-10-05T23:11:09.745Z,13.95
2022-10-05T23:13:36.182Z,13.87
2022-10-05T23:16:15.772Z,13.75
2022-10-05T23:18:42.399Z,13.46
2022-10-05T23:21:09.136Z,13.26
2022-10-05T23:23:36.346Z,13.12
2022-10-05T23:26:03.042Z,12.91
2022-10-05T23:28:29.844Z,12.72
2022-10-05T23:31:00.497Z,12.52
2022-10-05T23:33:27.136Z,12.30
2022-10-05T23:36:00.685Z,12.13
2022-10-05T23:38:27.497Z,12.04
2022-10-05T23:40:54.156Z,11.97
2022-10-05T23:43:20.743Z,11.90
2022-10-05T23:45:47.205Z,11.82
2022-10-05T23:48:13.667Z,11.79
2022-10-05T23:50:40.283Z,11.79
2022-10-05T23:53:06.865Z,11.79
2022-10-05T23:55:33.324Z,11.81
2022-10-05T23:57:59.782Z,11.77
